createdAt,value
2022-09-12T00:12:05.474Z,13.80
2022-09-12T00:17:01.445Z,13.80
2022-09-12T00:19:30.573Z,13.80
2022-09-12T00:24:26.156Z,14.90
2022-09-12T00:29:21.737Z,14.90
2022-09-12T00:31:49.095Z,13.70
2022-09-12T00:39:14.713Z,13.60
2022-09-12T00:44:12.540Z,14.10
2022-09-12T00:46:45.720Z,14.70
2022-09-12T00:49:26.802Z,14.70
2022-09-12T00:52:19.485Z,13.60
2022-09-12T00:55:02.137Z,14.60
2022-09-12T00:57:35.810Z,14.50
2022-09-12T01:00:17.688Z,15.20
2022-09-12T01:02:50.453Z,15.30
2022-09-12T01:05:17.760Z,15.80
2022-09-12T01:07:48.519Z,14.40
2022-09-12T01:10:15.601Z,13.60
2022-09-12T01:12:46.648Z,14.50
2022-09-12T01:15:13.840Z,14.40
2022-09-12T01:18:11.324Z,13.70
2022-09-12T01:20:46.003Z,14.30
2022-09-12T01:26:01.292Z,13.50
2022-09-12T01:28:46.769Z,14.30
2022-09-12T01:31:20.398Z,14.30
2022-09-12T01:34:28.189Z,13.80
2022-09-12T01:37:11.108Z,15.60
2022-09-12T01:42:30.176Z,14.30
2022-09-12T01:45:18.657Z,14.30
2022-09-12T01:48:04.703Z,13.40
2022-09-12T01:50:38.291Z,13.60
2022-09-12T01:53:13.561Z,14.30
2022-09-12T01:55:49.916Z,13.40
2022-09-12T01:58:21.570Z,14.30
2022-09-12T02:01:08.462Z,14.00
2022-09-12T02:03:44.999Z,14.40
2022-09-12T02:06:43.585Z,14.10
2022-09-12T02:09:21.653Z,14.80
2022-09-12T02:11:52.512Z,14.60
2022-09-12T02:14:26.004Z,13.40
2022-09-12T02:16:56.772Z,13.60
2022-09-12T02:19:27.334Z,14.40
2022-09-12T02:21:59.564Z,14.40
2022-09-12T02:24:33.851Z,13.50
2022-09-12T02:27:11.337Z,13.40
2022-09-12T02:32:11.555Z,14.50
2022-09-12T02:35:03.241Z,14.00
2022-09-12T02:38:02.156Z,13.60
2022-09-12T02:40:30.341Z,15.20
2022-09-12T02:43:00.061Z,14.70
2022-09-12T02:48:02.392Z,14.40
2022-09-12T02:53:04.596Z,14.60
2022-09-12T02:55:36.560Z,13.10
2022-09-12T02:58:07.550Z,14.30
2022-09-12T03:01:05.516Z,14.30
2022-09-12T03:03:58.196Z,14.30
2022-09-12T03:06:41.101Z,13.90
2022-09-12T03:09:24.505Z,13.40
2022-09-12T03:12:04.004Z,15.00
2022-09-12T03:14:38.756Z,13.60
2022-09-12T03:17:32.243Z,14.20
2022-09-12T03:20:21.870Z,15.50
2022-09-12T03:22:58.624Z,14.20
2022-09-12T03:25:36.001Z,15.30
2022-09-12T03:28:12.077Z,15.40
2022-09-12T03:30:46.673Z,13.50
2022-09-12T03:33:18.104Z,14.20
2022-09-12T03:35:46.384Z,15.00
2022-09-12T03:38:13.490Z,13.50
2022-09-12T03:43:10.338Z,14.20
2022-09-12T03:45:37.915Z,14.20
2022-09-12T03:48:07.971Z,14.20
2022-09-12T03:50:34.828Z,13.20
2022-09-12T03:53:02.900Z,13.10
2022-09-12T03:55:29.686Z,14.10
2022-09-12T04:00:24.687Z,13.40
2022-09-12T04:02:58.524Z,15.20
2022-09-12T04:05:25.987Z,13.20
2022-09-12T04:10:22.607Z,14.70
2022-09-12T04:12:49.329Z,13.20
2022-09-12T04:17:45.026Z,13.20
2022-09-12T04:20:13.381Z,14.40
2022-09-12T04:25:08.041Z,13.70
2022-09-12T04:30:02.820Z,14.90
2022-09-12T04:32:31.199Z,14.60
2022-09-12T04:42:26.789Z,13.30
2022-09-12T04:44:55.217Z,13.30
2022-09-12T04:47:23.105Z,14.30
2022-09-12T04:49:51.259Z,14.00
2022-09-12T04:52:20.168Z,13.40
2022-09-12T05:02:08.671Z,14.70
2022-09-12T05:04:35.972Z,14.10
2022-09-12T05:09:31.876Z,16.00
2022-09-12T05:12:05.369Z,14.00
2022-09-12T05:14:33.751Z,13.50
2022-09-12T05:17:01.862Z,14.60
2022-09-12T05:19:32.631Z,14.60
2022-09-12T05:22:00.069Z,16.00
2022-09-12T05:44:12.484Z,14.70
2022-09-12T05:46:41.925Z,14.70
2022-09-12T05:49:11.395Z,14.80
2022-09-12T05:51:41.477Z,14.80
2022-09-12T05:54:10.772Z,14.70
2022-09-12T05:56:44.449Z,14.90
2022-09-12T05:59:17.847Z,14.60
2022-09-12T06:01:47.580Z,16.00
2022-09-12T06:06:45.098Z,16.00
2022-09-12T06:09:13.779Z,15.50
2022-09-12T06:14:12.117Z,16.00
2022-09-12T06:19:12.006Z,14.90
2022-09-12T06:24:08.790Z,14.70
2022-09-12T06:26:36.113Z,15.50
2022-09-12T06:29:03.729Z,15.50
2022-09-12T06:31:33.961Z,14.80
2022-09-12T06:34:03.461Z,14.90
2022-09-12T06:36:33.842Z,15.40
2022-09-12T06:39:09.079Z,15.10
2022-09-12T06:41:36.983Z,15.60
2022-09-12T06:46:33.731Z,14.60
2022-09-12T06:49:01.060Z,14.90
2022-09-12T06:51:29.294Z,15.40
2022-09-12T06:53:58.245Z,15.80
2022-09-12T06:56:26.957Z,16.90
2022-09-12T06:58:55.636Z,16.00
2022-09-12T07:01:24.730Z,15.70
2022-09-12T07:03:55.093Z,15.10
2022-09-12T07:06:25.805Z,15.70
2022-09-12T07:11:22.999Z,16.60
2022-09-12T07:13:52.511Z,16.60
2022-09-12T07:18:55.729Z,16.90
2022-09-12T07:21:22.914Z,18.30
2022-09-12T07:26:19.295Z,15.80
2022-09-12T07:31:18.366Z,16.80
2022-09-12T07:33:45.260Z,18.80
2022-09-12T07:36:15.097Z,17.90
2022-09-12T07:38:43.773Z,16.60
2022-09-12T07:41:13.504Z,16.80
2022-09-12T07:43:41.802Z,16.60
2022-09-12T07:46:09.435Z,17.30
2022-09-12T07:48:36.664Z,19.00
2022-09-12T07:51:06.068Z,18.70
2022-09-12T07:53:37.066Z,16.50
2022-09-12T07:56:05.530Z,18.00
2022-09-12T07:58:34.028Z,18.40
2022-09-12T08:01:08.873Z,18.50
2022-09-12T08:03:47.215Z,18.60
2022-09-12T08:06:20.106Z,18.70
2022-09-12T08:11:18.481Z,20.10
2022-09-12T08:13:45.747Z,18.60
2022-09-12T08:16:18.230Z,19.10
2022-09-12T08:18:47.142Z,18.20
2022-09-12T08:21:22.616Z,19.30
2022-09-12T08:23:54.258Z,18.10
2022-09-12T08:26:21.162Z,21.00
2022-09-12T08:31:18.393Z,19.00
2022-09-12T08:33:45.470Z,19.10
2022-09-12T08:36:17.909Z,20.30
2022-09-12T08:38:46.359Z,21.50
2022-09-12T08:41:24.295Z,20.70
2022-09-12T08:44:35.843Z,20.20
2022-09-12T08:52:05.196Z,21.20
2022-09-12T08:54:33.634Z,21.50
2022-09-12T08:57:07.021Z,21.60
2022-09-12T08:59:39.671Z,21.60
2022-09-12T09:02:42.255Z,22.90
2022-09-12T09:05:21.040Z,23.00
2022-09-12T09:07:55.272Z,22.40
2022-09-12T09:10:41.148Z,20.50
2022-09-12T09:13:41.406Z,23.40
2022-09-12T09:16:21.483Z,22.30
2022-09-12T09:18:52.884Z,22.40
2022-09-12T09:21:29.282Z,21.40
2022-09-12T09:24:11.996Z,22.50
2022-09-12T09:26:45.979Z,22.60
2022-09-12T09:29:20.957Z,21.90
2022-09-12T09:31:54.255Z,23.90
2022-09-12T09:34:24.407Z,24.30
2022-09-12T09:37:23.004Z,24.50
2022-09-12T09:40:30.623Z,23.20
2022-09-12T09:43:18.346Z,23.40
2022-09-12T09:45:47.377Z,22.80
2022-09-12T09:48:28.793Z,25.10
2022-09-12T09:51:02.109Z,23.20
2022-09-12T09:56:41.448Z,22.80
2022-09-12T10:02:23.764Z,23.10
2022-09-12T10:07:54.708Z,26.50
2022-09-12T10:13:24.180Z,24.40
2022-09-12T10:16:00.301Z,25.50
2022-09-12T10:18:39.417Z,25.30
2022-09-12T10:21:20.569Z,26.20
2022-09-12T10:23:51.424Z,26.90
2022-09-12T10:26:22.118Z,24.80
2022-09-12T10:28:54.826Z,26.20
2022-09-12T10:31:29.135Z,27.70
2022-09-12T10:34:02.667Z,26.50
2022-09-12T10:36:38.548Z,26.10
2022-09-12T10:39:16.124Z,25.90
2022-09-12T10:41:42.960Z,27.40
2022-09-12T10:44:18.603Z,26.50
2022-09-12T10:46:45.734Z,26.40
2022-09-12T10:49:23.648Z,27.20
2022-09-12T10:51:52.295Z,27.80
2022-09-12T10:54:22.134Z,26.90
2022-09-12T10:57:30.337Z,27.10
2022-09-12T11:00:27.465Z,26.70
2022-09-12T11:03:15.244Z,28.10
2022-09-12T11:05:53.741Z,28.20
2022-09-12T11:08:47.473Z,28.40
2022-09-12T11:11:41.240Z,28.30
2022-09-12T11:14:13.327Z,29.00
2022-09-12T11:16:59.290Z,28.00
2022-09-12T11:19:54.823Z,28.40
2022-09-12T11:22:39.409Z,28.70
2022-09-12T11:25:30.973Z,29.20
2022-09-12T11:28:06.844Z,28.10
2022-09-12T11:30:47.721Z,28.30
2022-09-12T11:33:40.828Z,28.40
2022-09-12T11:36:30.480Z,28.80
2022-09-12T11:39:03.881Z,27.60
2022-09-12T11:41:37.987Z,28.40
2022-09-12T11:44:24.781Z,28.20
2022-09-12T11:46:52.286Z,27.90
2022-09-12T11:49:37.842Z,28.80
2022-09-12T11:52:13.252Z,29.00
2022-09-12T11:54:53.938Z,28.10
2022-09-12T11:57:53.046Z,28.40
2022-09-12T12:00:23.166Z,29.50
2022-09-12T12:02:53.024Z,30.60
2022-09-12T12:05:22.450Z,30.40
2022-09-12T12:07:55.179Z,30.90
2022-09-12T12:10:37.669Z,30.10
2022-09-12T12:13:21.291Z,29.30
2022-09-12T12:15:56.710Z,29.40
2022-09-12T12:18:30.642Z,30.00
2022-09-12T12:21:17.437Z,28.50
2022-09-12T12:24:08.555Z,30.40
2022-09-12T12:26:41.178Z,30.00
2022-09-12T12:29:17.644Z,30.70
2022-09-12T12:32:05.698Z,30.70
2022-09-12T12:34:33.517Z,30.10
2022-09-12T12:37:20.332Z,31.20
2022-09-12T12:39:55.804Z,31.70
2022-09-12T12:42:57.187Z,31.70
2022-09-12T12:45:28.632Z,31.00
2022-09-12T12:48:16.293Z,32.20
2022-09-12T12:50:43.126Z,31.90
2022-09-12T12:53:18.080Z,33.50
2022-09-12T12:55:44.805Z,34.00
2022-09-12T12:58:37.129Z,32.70
2022-09-12T13:01:23.736Z,34.80
2022-09-12T13:04:12.317Z,33.60
2022-09-12T13:06:44.986Z,33.20
2022-09-12T13:09:14.439Z,33.60
2022-09-12T13:11:41.646Z,34.00
2022-09-12T13:14:35.376Z,34.00
2022-09-12T13:17:06.305Z,34.70
2022-09-12T13:19:37.101Z,34.00
2022-09-12T13:22:09.068Z,34.30
2022-09-12T13:24:52.581Z,35.30
2022-09-12T13:27:26.003Z,35.60
2022-09-12T13:30:15.110Z,35.40
2022-09-12T13:32:43.564Z,34.40
2022-09-12T13:35:42.867Z,36.90
2022-09-12T13:38:24.725Z,36.20
2022-09-12T13:41:21.686Z,36.50
2022-09-12T13:43:49.439Z,37.10
2022-09-12T13:46:21.770Z,37.50
2022-09-12T13:48:48.980Z,37.70
2022-09-12T13:51:26.482Z,37.30
2022-09-12T13:53:58.177Z,37.10
2022-09-12T13:56:25.087Z,37.20
2022-09-12T13:59:00.829Z,37.00
2022-09-12T14:01:43.003Z,37.10
2022-09-12T14:04:46.787Z,37.70
2022-09-12T14:07:22.145Z,37.90
2022-09-12T14:09:57.725Z,37.70
2022-09-12T14:12:32.393Z,37.40
2022-09-12T14:14:59.336Z,37.20
2022-09-12T14:17:34.675Z,37.20
2022-09-12T14:20:05.144Z,37.60
2022-09-12T14:22:33.889Z,38.10
2022-09-12T14:25:02.102Z,38.40
2022-09-12T14:27:35.949Z,38.10
2022-09-12T14:30:19.016Z,37.40
2022-09-12T14:33:20.844Z,37.00
2022-09-12T14:35:53.474Z,36.90
2022-09-12T14:38:31.310Z,36.90
2022-09-12T14:41:09.931Z,36.70
2022-09-12T14:43:44.271Z,36.60
2022-09-12T14:46:23.258Z,36.60
2022-09-12T14:49:12.857Z,36.40
2022-09-12T14:51:49.361Z,35.20
2022-09-12T14:54:37.277Z,36.10
2022-09-12T14:57:36.639Z,35.80
2022-09-12T15:00:20.943Z,36.40
2022-09-12T15:02:49.851Z,35.50
2022-09-12T15:05:21.285Z,35.50
2022-09-12T15:07:53.939Z,35.10
2022-09-12T15:10:31.395Z,34.80
2022-09-12T15:13:40.400Z,34.60
2022-09-12T15:16:11.698Z,34.70
2022-09-12T15:18:38.569Z,34.90
2022-09-12T15:21:07.903Z,35.30
2022-09-12T15:23:47.369Z,36.00
2022-09-12T15:26:21.770Z,36.40
2022-09-12T15:28:50.910Z,36.80
2022-09-12T15:31:29.680Z,37.20
2022-09-12T15:34:00.124Z,37.80
2022-09-12T15:36:28.793Z,38.00
2022-09-12T15:38:56.103Z,38.00
2022-09-12T15:41:31.297Z,38.10
2022-09-12T15:43:58.719Z,38.30
2022-09-12T15:46:25.757Z,38.60
2022-09-12T15:48:52.582Z,39.00
2022-09-12T15:51:21.401Z,39.10
2022-09-12T15:53:49.614Z,39.10
2022-09-12T15:56:18.413Z,39.20
2022-09-12T15:58:58.249Z,39.50
2022-09-12T16:01:28.054Z,39.90
2022-09-12T16:03:58.647Z,40.50
2022-09-12T16:06:25.572Z,40.30
2022-09-12T16:08:54.438Z,40.80
2022-09-12T16:11:26.346Z,40.40
2022-09-12T16:13:54.108Z,39.90
2022-09-12T16:16:21.185Z,38.10
2022-09-12T16:18:48.208Z,37.10
2022-09-12T16:21:15.941Z,36.40
2022-09-12T16:23:44.448Z,36.40
2022-09-12T16:26:11.226Z,35.90
2022-09-12T16:28:38.020Z,35.30
2022-09-12T16:31:08.529Z,36.20
2022-09-12T16:33:37.113Z,37.40
2022-09-12T16:36:05.004Z,37.10
2022-09-12T16:38:34.282Z,36.10
2022-09-12T16:41:05.664Z,35.00
2022-09-12T16:43:34.380Z,34.50
2022-09-12T16:46:12.570Z,32.10
2022-09-12T16:48:52.142Z,32.70
2022-09-12T16:51:30.452Z,32.00
2022-09-12T16:53:57.297Z,31.30
2022-09-12T16:56:24.788Z,30.40
2022-09-12T16:58:51.963Z,31.00
2022-09-12T17:01:21.321Z,30.90
2022-09-12T17:03:48.745Z,30.50
2022-09-12T17:06:18.226Z,30.10
2022-09-12T17:08:50.664Z,29.70
2022-09-12T17:11:20.571Z,29.30
2022-09-12T17:14:06.170Z,29.00
2022-09-12T17:16:35.298Z,27.60
2022-09-12T17:19:02.060Z,28.20
2022-09-12T17:21:30.781Z,28.10
2022-09-12T17:23:59.127Z,26.80
2022-09-12T17:26:26.691Z,27.70
2022-09-12T17:28:53.603Z,27.50
2022-09-12T17:31:20.699Z,27.50
2022-09-12T17:33:47.685Z,27.50
2022-09-12T17:36:17.665Z,26.40
2022-09-12T17:38:46.606Z,28.40
2022-09-12T17:41:19.470Z,25.70
2022-09-12T17:43:56.513Z,25.50
2022-09-12T17:46:33.682Z,26.70
2022-09-12T17:49:01.530Z,25.90
2022-09-12T17:51:30.669Z,26.00
2022-09-12T17:54:02.441Z,27.10
2022-09-12T17:56:31.013Z,26.70
2022-09-12T17:59:00.339Z,24.80
2022-09-12T18:01:47.459Z,25.40
2022-09-12T18:04:14.513Z,24.80
2022-09-12T18:06:47.693Z,26.50
2022-09-12T18:09:17.744Z,25.50
2022-09-12T18:11:48.074Z,24.10
2022-09-12T18:14:15.715Z,23.50
2022-09-12T18:16:43.269Z,23.40
2022-09-12T18:19:11.246Z,23.80
2022-09-12T18:21:38.317Z,23.50
2022-09-12T18:24:07.408Z,24.30
2022-09-12T18:26:34.622Z,23.20
2022-09-12T18:29:01.395Z,23.90
2022-09-12T18:31:29.773Z,23.10
2022-09-12T18:33:57.608Z,23.80
2022-09-12T18:36:24.519Z,24.10
2022-09-12T18:38:51.370Z,24.20
2022-09-12T18:41:21.122Z,23.60
2022-09-12T18:43:48.823Z,22.80
2022-09-12T18:46:18.062Z,23.50
2022-09-12T18:48:45.998Z,22.30
2022-09-12T18:51:14.912Z,23.40
2022-09-12T18:56:14.093Z,22.60
2022-09-12T18:58:43.118Z,24.00
2022-09-12T19:01:15.425Z,23.00
2022-09-12T19:03:42.580Z,22.00
2022-09-12T19:06:18.279Z,22.80
2022-09-12T19:08:46.251Z,22.60
2022-09-12T19:13:42.933Z,21.80
2022-09-12T19:16:16.272Z,22.50
2022-09-12T19:18:45.321Z,22.80
2022-09-12T19:21:24.372Z,22.20
2022-09-12T19:23:52.604Z,22.30
2022-09-12T19:26:21.260Z,22.30
2022-09-12T19:28:48.598Z,21.10
2022-09-12T19:31:18.990Z,21.30
2022-09-12T19:33:46.722Z,22.10
2022-09-12T19:36:33.974Z,21.00
2022-09-12T19:39:02.010Z,22.20
2022-09-12T19:41:33.153Z,22.10
2022-09-12T19:44:00.320Z,22.20
2022-09-12T19:48:54.873Z,22.70
2022-09-12T19:51:23.949Z,22.00
2022-09-12T19:53:53.637Z,23.00
2022-09-12T19:56:20.908Z,22.90
2022-09-12T20:01:29.193Z,23.00
2022-09-12T20:03:59.489Z,21.90
2022-09-12T20:06:27.362Z,20.80
2022-09-12T20:08:55.142Z,21.50
2022-09-12T20:11:23.998Z,21.20
2022-09-12T20:13:51.073Z,21.20
2022-09-12T20:16:25.225Z,21.80
2022-09-12T20:19:08.503Z,21.30
2022-09-12T20:21:36.158Z,21.70
2022-09-12T20:24:14.474Z,22.80
2022-09-12T20:29:13.057Z,21.50
2022-09-12T20:31:41.591Z,21.50
2022-09-12T20:34:14.560Z,21.50
2022-09-12T20:36:41.396Z,21.40
2022-09-12T20:46:30.615Z,20.10
2022-09-12T20:51:30.458Z,20.70
2022-09-12T20:53:59.988Z,20.10
2022-09-12T20:56:28.333Z,20.60
2022-09-12T20:58:56.074Z,19.70
2022-09-12T21:01:26.196Z,20.90
2022-09-12T21:08:49.500Z,22.00
2022-09-12T21:13:43.961Z,19.60
2022-09-12T21:16:13.340Z,20.60
2022-09-12T21:18:41.167Z,21.20
2022-09-12T21:23:35.407Z,21.60
2022-09-12T21:26:03.334Z,21.80
2022-09-12T21:28:31.157Z,20.00
2022-09-12T21:30:58.138Z,19.90
2022-09-12T21:35:52.624Z,19.40
2022-09-12T21:38:19.995Z,21.60
2022-09-12T21:40:47.941Z,19.60
2022-09-12T21:43:15.232Z,19.40
2022-09-12T21:45:43.741Z,20.60
2022-09-12T21:48:10.461Z,21.70
2022-09-12T21:50:37.263Z,20.20
2022-09-12T21:53:06.497Z,20.50
2022-09-12T21:55:33.286Z,21.90
2022-09-12T21:58:00.055Z,20.10
2022-09-12T22:00:27.032Z,19.80
2022-09-12T22:05:26.768Z,20.00
2022-09-12T22:07:53.524Z,21.30
2022-09-12T22:12:47.509Z,20.20
2022-09-12T22:25:45.798Z,20.20
2022-09-12T22:33:11.714Z,19.10
2022-09-12T22:35:40.259Z,20.00
2022-09-12T22:40:35.050Z,19.30
2022-09-12T22:45:31.312Z,20.20
2022-09-12T22:50:28.549Z,18.90
2022-09-12T22:55:22.521Z,19.00
2022-09-12T22:57:49.353Z,19.00
2022-09-12T23:05:12.626Z,18.90
2022-09-12T23:07:39.991Z,18.90
2022-09-12T23:10:07.296Z,18.80
2022-09-12T23:12:36.808Z,18.90
2022-09-12T23:15:04.080Z,19.30
2022-09-12T23:17:30.844Z,18.80
2022-09-12T23:22:26.507Z,20.00
2022-09-12T23:27:23.112Z,18.80
2022-09-12T23:29:52.400Z,19.30
2022-09-12T23:32:20.886Z,20.50
2022-09-12T23:34:48.379Z,19.90
2022-09-12T23:37:15.778Z,18.90
2022-09-12T23:42:09.744Z,20.70
2022-09-12T23:44:36.481Z,18.60
2022-09-12T23:47:05.267Z,20.90
2022-09-12T23:49:33.838Z,20.60
2022-09-12T23:54:27.680Z,20.50
